createdAt,value
2023-03-02T00:01:53.162Z,100873.72
2023-03-02T00:04:29.403Z,100869.53
2023-03-02T00:07:01.170Z,100870.28
2023-03-02T00:09:30.882Z,100868.44
2023-03-02T00:11:58.806Z,100865.88
2023-03-02T00:14:27.131Z,100859.69
2023-03-02T00:16:55.032Z,100858.91
2023-03-02T00:19:23.330Z,100857.97
2023-03-02T00:21:51.414Z,100863.69
2023-03-02T00:24:20.300Z,100862.97
2023-03-02T00:26:48.390Z,100869.75
2023-03-02T00:29:16.830Z,100864.22
2023-03-02T00:31:45.034Z,100858.91
2023-03-02T00:34:13.546Z,100862.91
2023-03-02T00:36:41.740Z,100862.47
2023-03-02T00:39:10.237Z,100856.00
2023-03-02T00:41:38.606Z,100854.28
2023-03-02T00:44:06.902Z,100850.09
2023-03-02T00:46:35.111Z,100855.00
2023-03-02T00:49:03.929Z,100852.44
2023-03-02T00:51:31.844Z,100858.34
2023-03-02T00:54:03.085Z,100860.34
2023-03-02T00:56:31.859Z,100859.66
2023-03-02T00:59:28.430Z,100861.03
2023-03-02T01:02:06.781Z,100859.81
2023-03-02T01:04:41.889Z,100853.63
2023-03-02T01:07:11.716Z,100845.47
2023-03-02T01:09:42.072Z,100842.47
2023-03-02T01:12:11.590Z,100846.19
2023-03-02T01:14:45.006Z,100838.88
2023-03-02T01:17:13.648Z,100832.50
2023-03-02T01:19:42.948Z,100832.19
2023-03-02T01:22:11.096Z,100833.53
2023-03-02T01:24:39.419Z,100831.09
2023-03-02T01:27:07.511Z,100821.75
2023-03-02T01:29:36.405Z,100819.31
2023-03-02T01:32:04.705Z,100831.34
2023-03-02T01:34:33.348Z,100825.31
2023-03-02T01:37:01.273Z,100822.94
2023-03-02T01:39:29.834Z,100825.50
2023-03-02T01:41:57.757Z,100817.50
2023-03-02T01:44:57.338Z,100813.91
2023-03-02T01:47:32.596Z,100815.25
2023-03-02T01:50:27.089Z,100805.00
2023-03-02T01:52:58.673Z,100809.88
2023-03-02T01:55:31.715Z,100810.00
2023-03-02T01:58:01.300Z,100796.63
2023-03-02T02:00:34.951Z,100804.34
2023-03-02T02:03:11.807Z,100799.25
2023-03-02T02:05:44.718Z,100800.00
2023-03-02T02:08:12.656Z,100798.19
2023-03-02T02:10:41.111Z,100796.09
2023-03-02T02:13:11.998Z,100790.09
2023-03-02T02:15:41.741Z,100796.53
2023-03-02T02:18:10.020Z,100793.31
2023-03-02T02:20:42.750Z,100795.03
2023-03-02T02:23:42.929Z,100792.91
2023-03-02T02:26:18.634Z,100796.59
2023-03-02T02:29:01.573Z,100796.53
2023-03-02T02:31:49.228Z,100799.56
2023-03-02T02:34:31.189Z,100799.97
2023-03-02T02:37:08.594Z,100798.19
2023-03-02T02:39:41.863Z,100792.25
2023-03-02T02:42:17.729Z,100787.38
2023-03-02T02:44:46.057Z,100789.00
2023-03-02T02:47:21.312Z,100782.50
2023-03-02T02:49:52.979Z,100784.59
2023-03-02T02:52:24.356Z,100789.56
2023-03-02T02:54:55.135Z,100788.03
2023-03-02T02:57:29.410Z,100794.25
2023-03-02T03:00:00.809Z,100795.00
2023-03-02T03:02:33.405Z,100791.50
2023-03-02T03:05:04.268Z,100786.00
2023-03-02T03:07:35.907Z,100794.41
2023-03-02T03:10:14.586Z,100781.41
2023-03-02T03:12:43.177Z,100790.28
2023-03-02T03:15:12.172Z,100788.63
2023-03-02T03:17:41.177Z,100787.22
2023-03-02T03:20:09.727Z,100796.00
2023-03-02T03:22:43.501Z,100794.53
2023-03-02T03:25:15.659Z,100792.38
2023-03-02T03:27:47.491Z,100798.56
2023-03-02T03:30:16.281Z,100800.06
2023-03-02T03:32:45.203Z,100802.63
2023-03-02T03:35:15.096Z,100795.00
2023-03-02T03:37:43.683Z,100802.53
2023-03-02T03:40:12.742Z,100804.19
2023-03-02T03:42:44.302Z,100802.22
2023-03-02T03:45:13.844Z,100803.63
2023-03-02T03:47:44.971Z,100805.06
2023-03-02T03:50:13.195Z,100802.81
2023-03-02T03:52:42.355Z,100794.22
2023-03-02T03:55:16.113Z,100796.06
2023-03-02T03:57:46.813Z,100793.94
2023-03-02T04:00:19.723Z,100796.88
2023-03-02T04:02:53.611Z,100794.13
2023-03-02T04:05:22.035Z,100788.09
2023-03-02T04:07:53.826Z,100794.84
2023-03-02T04:10:22.875Z,100800.06
2023-03-02T04:12:54.583Z,100788.63
2023-03-02T04:15:23.381Z,100800.16
2023-03-02T04:17:53.464Z,100796.63
2023-03-02T04:20:24.952Z,100797.88
2023-03-02T04:22:57.560Z,100802.03
2023-03-02T04:25:28.561Z,100803.81
2023-03-02T04:28:05.690Z,100797.38
2023-03-02T04:30:37.678Z,100795.81
2023-03-02T04:33:06.009Z,100800.25
2023-03-02T04:35:35.432Z,100801.41
2023-03-02T04:38:04.796Z,100807.06
2023-03-02T04:40:32.854Z,100798.25
2023-03-02T04:43:01.333Z,100797.19
2023-03-02T04:45:29.417Z,100800.25
2023-03-02T04:47:57.747Z,100805.94
2023-03-02T04:50:26.016Z,100804.94
2023-03-02T04:52:54.260Z,100801.81
2023-03-02T04:55:25.298Z,100802.91
2023-03-02T04:57:53.816Z,100806.81
2023-03-02T05:00:22.076Z,100805.66
2023-03-02T05:02:50.450Z,100803.91
2023-03-02T05:05:22.719Z,100799.00
2023-03-02T05:07:51.461Z,100796.16
2023-03-02T05:10:20.929Z,100791.69
2023-03-02T05:12:55.211Z,100798.13
2023-03-02T05:15:25.247Z,100800.78
2023-03-02T05:17:53.703Z,100804.38
2023-03-02T05:20:27.804Z,100808.84
2023-03-02T05:22:59.637Z,100810.03
2023-03-02T05:25:29.500Z,100807.94
2023-03-02T05:27:58.118Z,100807.19
2023-03-02T05:30:26.414Z,100808.94
2023-03-02T05:32:55.333Z,100810.41
2023-03-02T05:35:23.504Z,100812.94
2023-03-02T05:37:52.927Z,100810.13
2023-03-02T05:40:21.306Z,100815.06
2023-03-02T05:42:51.127Z,100812.88
2023-03-02T05:45:45.384Z,100812.47
2023-03-02T05:48:14.447Z,100816.72
2023-03-02T05:50:42.590Z,100817.78
2023-03-02T05:53:10.863Z,100823.13
2023-03-02T05:55:38.866Z,100826.06
2023-03-02T05:58:09.374Z,100825.09
2023-03-02T06:00:37.422Z,100825.00
2023-03-02T06:03:05.749Z,100829.72
2023-03-02T06:05:34.677Z,100829.63
2023-03-02T06:08:03.890Z,100833.00
2023-03-02T06:10:32.771Z,100831.50
2023-03-02T06:13:01.230Z,100832.22
2023-03-02T06:15:29.888Z,100833.91
2023-03-02T06:17:58.369Z,100837.00
2023-03-02T06:20:26.570Z,100831.81
2023-03-02T06:22:55.448Z,100829.81
2023-03-02T06:25:25.075Z,100832.00
2023-03-02T06:27:53.990Z,100838.19
2023-03-02T06:30:25.999Z,100832.91
2023-03-02T06:32:54.462Z,100829.44
2023-03-02T06:35:24.283Z,100834.75
2023-03-02T06:37:52.764Z,100836.53
2023-03-02T06:40:22.031Z,100834.59
2023-03-02T06:42:50.586Z,100837.47
2023-03-02T06:45:18.636Z,100834.88
2023-03-02T06:47:46.904Z,100841.00
2023-03-02T06:50:14.985Z,100840.03
2023-03-02T06:52:43.344Z,100848.38
2023-03-02T06:55:11.400Z,100853.44
2023-03-02T06:57:40.074Z,100852.72
2023-03-02T07:00:16.280Z,100858.75
2023-03-02T07:02:45.382Z,100856.88
2023-03-02T07:05:13.659Z,100848.72
2023-03-02T07:07:42.443Z,100852.34
2023-03-02T07:10:12.727Z,100863.13
2023-03-02T07:12:42.077Z,100867.06
2023-03-02T07:15:12.500Z,100861.03
2023-03-02T07:17:43.149Z,100867.66
2023-03-02T07:20:13.963Z,100857.09
2023-03-02T07:22:43.102Z,100853.81
2023-03-02T07:25:11.873Z,100858.69
2023-03-02T07:27:40.553Z,100868.91
2023-03-02T07:30:09.546Z,100867.53
2023-03-02T07:32:38.202Z,100867.56
2023-03-02T07:35:06.965Z,100870.91
2023-03-02T07:37:35.332Z,100874.63
2023-03-02T07:40:04.067Z,100872.72
2023-03-02T07:42:34.305Z,100884.19
2023-03-02T07:45:05.151Z,100874.47
2023-03-02T07:47:33.510Z,100885.97
2023-03-02T07:50:01.506Z,100877.75
2023-03-02T07:52:31.158Z,100881.00
2023-03-02T07:54:59.147Z,100889.19
2023-03-02T07:57:27.525Z,100887.59
2023-03-02T07:59:55.553Z,100879.28
2023-03-02T08:02:25.716Z,100878.34
2023-03-02T08:04:53.778Z,100877.16
2023-03-02T08:07:22.169Z,100880.56
2023-03-02T08:09:50.585Z,100885.28
2023-03-02T08:12:18.908Z,100877.28
2023-03-02T08:14:48.433Z,100877.69
2023-03-02T08:17:16.670Z,100879.81
2023-03-02T08:19:45.109Z,100869.34
2023-03-02T08:22:14.366Z,100866.38
2023-03-02T08:24:43.151Z,100862.63
2023-03-02T08:27:15.846Z,100870.97
2023-03-02T08:29:44.056Z,100864.28
2023-03-02T08:32:12.691Z,100859.75
2023-03-02T08:34:40.769Z,100862.88
2023-03-02T08:37:09.112Z,100856.13
2023-03-02T08:39:37.113Z,100863.50
2023-03-02T08:42:05.381Z,100862.22
2023-03-02T08:44:33.383Z,100863.53
2023-03-02T08:47:01.659Z,100853.91
2023-03-02T08:49:29.605Z,100862.13
2023-03-02T08:51:59.286Z,100858.31
2023-03-02T08:54:27.421Z,100857.03
2023-03-02T08:56:56.090Z,100867.47
2023-03-02T08:59:24.239Z,100860.97
2023-03-02T09:01:52.585Z,100864.16
2023-03-02T09:04:20.676Z,100868.41
2023-03-02T09:06:49.041Z,100870.81
2023-03-02T09:09:16.978Z,100869.38
2023-03-02T09:11:45.478Z,100861.63
2023-03-02T09:14:13.492Z,100854.25
2023-03-02T09:16:42.073Z,100857.06
2023-03-02T09:19:12.126Z,100855.97
2023-03-02T09:21:40.528Z,100868.22
2023-03-02T09:24:09.014Z,100869.94
2023-03-02T09:26:39.602Z,100866.47
2023-03-02T09:29:08.036Z,100859.09
2023-03-02T09:31:38.001Z,100864.78
2023-03-02T09:34:06.548Z,100864.91
2023-03-02T09:36:35.246Z,100861.28
2023-03-02T09:39:08.729Z,100872.00
2023-03-02T09:42:06.545Z,100874.50
2023-03-02T09:45:19.451Z,100880.16
2023-03-02T09:47:53.825Z,100878.56
2023-03-02T09:50:31.156Z,100886.63
2023-03-02T09:53:05.729Z,100883.06
2023-03-02T09:55:36.411Z,100892.63
2023-03-02T09:58:16.333Z,100884.34
2023-03-02T10:00:45.980Z,100888.13
2023-03-02T10:03:32.399Z,100883.94
2023-03-02T10:06:00.558Z,100885.50
2023-03-02T10:08:34.382Z,100883.31
2023-03-02T10:11:18.206Z,100886.50
2023-03-02T10:14:03.777Z,100884.44
2023-03-02T10:17:04.408Z,100896.72
2023-03-02T10:19:42.517Z,100895.47
2023-03-02T10:22:17.185Z,100899.75
2023-03-02T10:25:03.476Z,100888.59
2023-03-02T10:27:39.499Z,100894.06
2023-03-02T10:30:25.915Z,100901.06
2023-03-02T10:32:59.418Z,100886.41
2023-03-02T10:35:29.858Z,100888.25
2023-03-02T10:38:07.225Z,100886.25
2023-03-02T10:40:49.569Z,100894.47
2023-03-02T10:43:42.945Z,100890.53
2023-03-02T10:46:13.367Z,100884.25
2023-03-02T10:49:01.496Z,100880.28
2023-03-02T10:51:33.027Z,100886.94
2023-03-02T10:54:11.041Z,100890.88
2023-03-02T10:56:43.440Z,100880.28
2023-03-02T10:59:29.443Z,100878.75
2023-03-02T11:02:13.006Z,100881.75
2023-03-02T11:04:41.249Z,100878.28
2023-03-02T11:07:19.017Z,100878.25
2023-03-02T11:10:17.816Z,100872.56
2023-03-02T11:12:49.287Z,100872.69
2023-03-02T11:15:23.149Z,100872.25
2023-03-02T11:18:00.296Z,100870.88
2023-03-02T11:20:44.345Z,100874.63
2023-03-02T11:23:41.307Z,100883.03
2023-03-02T11:26:39.277Z,100879.41
2023-03-02T11:29:10.537Z,100873.56
2023-03-02T11:31:44.700Z,100866.97
2023-03-02T11:34:23.335Z,100865.34
2023-03-02T11:37:00.467Z,100858.72
2023-03-02T11:39:56.224Z,100862.66
2023-03-02T11:42:34.995Z,100864.97
2023-03-02T11:45:17.996Z,100865.91
2023-03-02T11:48:18.190Z,100857.50
2023-03-02T11:50:57.775Z,100864.38
2023-03-02T11:53:58.465Z,100856.38
2023-03-02T11:56:37.160Z,100848.16
2023-03-02T11:59:17.726Z,100842.78
2023-03-02T12:01:50.992Z,100848.78
2023-03-02T12:04:35.177Z,100847.84
2023-03-02T12:07:18.359Z,100847.84
2023-03-02T12:10:00.829Z,100835.25
2023-03-02T12:12:41.934Z,100843.06
2023-03-02T12:15:50.975Z,100835.47
2023-03-02T12:18:22.579Z,100834.69
2023-03-02T12:21:14.858Z,100829.97
2023-03-02T12:23:49.092Z,100829.59
2023-03-02T12:26:19.661Z,100827.22
2023-03-02T12:29:05.030Z,100825.25
2023-03-02T12:32:10.159Z,100824.13
2023-03-02T12:34:42.772Z,100815.44
2023-03-02T12:37:17.293Z,100817.09
2023-03-02T12:39:51.552Z,100814.97
2023-03-02T12:42:28.522Z,100811.16
2023-03-02T12:45:19.207Z,100815.91
2023-03-02T12:47:51.857Z,100812.97
2023-03-02T12:50:30.490Z,100810.78
2023-03-02T12:53:04.760Z,100802.03
2023-03-02T12:55:34.600Z,100802.91
2023-03-02T12:58:02.809Z,100809.97
2023-03-02T13:00:34.481Z,100805.06
2023-03-02T13:03:02.543Z,100803.94
2023-03-02T13:05:34.947Z,100794.91
2023-03-02T13:08:18.454Z,100801.31
2023-03-02T13:10:52.539Z,100803.75
2023-03-02T13:13:27.843Z,100803.97
2023-03-02T13:15:58.832Z,100804.09
2023-03-02T13:18:32.294Z,100794.31
2023-03-02T13:21:02.757Z,100796.72
2023-03-02T13:23:33.319Z,100796.59
2023-03-02T13:26:05.192Z,100791.66
2023-03-02T13:28:35.980Z,100791.84
2023-03-02T13:31:05.820Z,100787.28
2023-03-02T13:33:36.241Z,100787.59
2023-03-02T13:36:04.792Z,100788.44
2023-03-02T13:38:38.922Z,100781.09
2023-03-02T13:41:08.451Z,100783.25
2023-03-02T13:43:39.444Z,100776.69
2023-03-02T13:46:27.854Z,100779.53
2023-03-02T13:49:10.309Z,100777.72
2023-03-02T13:51:45.550Z,100774.72
2023-03-02T13:54:22.903Z,100774.59
2023-03-02T13:56:53.733Z,100769.38
2023-03-02T13:59:22.392Z,100768.16
2023-03-02T14:01:51.482Z,100771.84
2023-03-02T14:04:23.674Z,100767.56
2023-03-02T14:06:54.111Z,100766.19
2023-03-02T14:09:22.220Z,100763.78
2023-03-02T14:11:55.975Z,100764.16
2023-03-02T14:14:27.713Z,100759.25
2023-03-02T14:16:56.516Z,100756.19
2023-03-02T14:19:24.373Z,100755.47
2023-03-02T14:21:52.555Z,100760.16
2023-03-02T14:24:20.376Z,100758.28
2023-03-02T14:26:49.870Z,100756.59
2023-03-02T14:29:30.415Z,100753.41
2023-03-02T14:32:06.927Z,100758.66
2023-03-02T14:34:37.245Z,100751.66
2023-03-02T14:37:14.179Z,100749.97
2023-03-02T14:39:46.128Z,100753.69
2023-03-02T14:42:16.697Z,100754.03
2023-03-02T14:44:46.105Z,100754.03
2023-03-02T14:47:16.995Z,100748.06
2023-03-02T14:49:45.395Z,100748.97
2023-03-02T14:52:32.343Z,100748.84
2023-03-02T14:55:06.398Z,100746.53
2023-03-02T14:57:38.681Z,100746.16
2023-03-02T15:00:13.171Z,100736.22
2023-03-02T15:02:42.060Z,100736.09
2023-03-02T15:05:10.229Z,100731.28
2023-03-02T15:07:39.173Z,100734.53
2023-03-02T15:10:11.569Z,100727.03
2023-03-02T15:12:39.812Z,100731.97
2023-03-02T15:15:08.228Z,100735.44
2023-03-02T15:17:36.441Z,100731.94
2023-03-02T15:20:06.339Z,100724.34
2023-03-02T15:22:34.844Z,100728.81
2023-03-02T15:25:02.681Z,100728.91
2023-03-02T15:27:30.883Z,100727.28
2023-03-02T15:29:58.819Z,100720.19
2023-03-02T15:32:27.290Z,100727.78
2023-03-02T15:34:55.372Z,100722.72
2023-03-02T15:37:23.616Z,100728.19
2023-03-02T15:39:55.902Z,100723.41
2023-03-02T15:42:24.406Z,100718.13
2023-03-02T15:44:52.344Z,100722.19
2023-03-02T15:47:20.527Z,100720.44
2023-03-02T15:49:48.364Z,100716.16
2023-03-02T15:52:16.697Z,100724.47
2023-03-02T15:54:44.610Z,100725.81
2023-03-02T15:57:12.961Z,100727.69
2023-03-02T15:59:40.907Z,100727.66
2023-03-02T16:02:09.791Z,100723.81
2023-03-02T16:04:37.727Z,100718.78
2023-03-02T16:07:06.098Z,100730.31
2023-03-02T16:09:34.092Z,100729.06
2023-03-02T16:12:02.349Z,100728.69
2023-03-02T16:14:30.219Z,100731.63
2023-03-02T16:16:58.536Z,100734.09
2023-03-02T16:19:26.421Z,100735.25
2023-03-02T16:21:54.770Z,100732.06
2023-03-02T16:24:22.797Z,100726.66
2023-03-02T16:26:53.917Z,100733.47
2023-03-02T16:29:22.911Z,100739.94
2023-03-02T16:31:51.314Z,100724.41
2023-03-02T16:34:19.420Z,100729.84
2023-03-02T16:36:47.941Z,100733.78
2023-03-02T16:39:15.875Z,100739.09
2023-03-02T16:41:46.717Z,100739.22
2023-03-02T16:44:14.881Z,100739.94
2023-03-02T16:46:43.845Z,100731.72
2023-03-02T16:49:13.595Z,100734.59
2023-03-02T16:51:43.369Z,100742.69
2023-03-02T16:54:15.823Z,100744.38
2023-03-02T16:56:47.615Z,100741.53
2023-03-02T16:59:16.080Z,100743.34
2023-03-02T17:01:44.826Z,100742.13
2023-03-02T17:04:13.078Z,100742.78
2023-03-02T17:06:59.762Z,100741.69
2023-03-02T17:09:28.733Z,100743.44
2023-03-02T17:11:57.948Z,100746.41
2023-03-02T17:14:26.552Z,100753.50
2023-03-02T17:16:57.094Z,100754.66
2023-03-02T17:19:27.209Z,100755.59
2023-03-02T17:22:03.013Z,100751.50
2023-03-02T17:24:31.335Z,100753.88
2023-03-02T17:26:59.984Z,100756.84
2023-03-02T17:29:28.190Z,100756.84
2023-03-02T17:31:56.672Z,100765.84
2023-03-02T17:34:28.859Z,100763.84
2023-03-02T17:37:00.166Z,100777.69
2023-03-02T17:39:28.797Z,100772.66
2023-03-02T17:41:57.268Z,100772.50
2023-03-02T17:44:25.452Z,100778.94
2023-03-02T17:46:54.213Z,100775.47
2023-03-02T17:49:22.461Z,100780.84
2023-03-02T17:51:50.850Z,100788.44
2023-03-02T17:54:18.997Z,100783.06
2023-03-02T17:56:47.751Z,100788.38
2023-03-02T17:59:15.951Z,100792.84
2023-03-02T18:01:44.411Z,100788.44
2023-03-02T18:04:12.808Z,100786.84
2023-03-02T18:06:41.561Z,100794.72
2023-03-02T18:09:10.360Z,100798.34
2023-03-02T18:11:41.630Z,100803.53
2023-03-02T18:14:15.492Z,100799.13
2023-03-02T18:16:44.512Z,100814.56
2023-03-02T18:19:12.790Z,100809.06
2023-03-02T18:21:42.767Z,100802.59
2023-03-02T18:24:10.871Z,100815.50
2023-03-02T18:26:39.737Z,100806.88
2023-03-02T18:29:08.178Z,100811.09
2023-03-02T18:31:36.901Z,100810.00
2023-03-02T18:34:05.071Z,100805.59
2023-03-02T18:36:33.765Z,100805.94
2023-03-02T18:39:03.324Z,100816.41
2023-03-02T18:41:32.794Z,100818.41
2023-03-02T18:44:01.559Z,100819.63
2023-03-02T18:46:32.231Z,100820.81
2023-03-02T18:49:01.192Z,100821.31
2023-03-02T18:51:29.558Z,100819.03
2023-03-02T18:53:57.732Z,100819.69
2023-03-02T18:56:26.154Z,100822.41
2023-03-02T18:58:54.783Z,100826.03
2023-03-02T19:01:23.433Z,100822.28
2023-03-02T19:03:53.484Z,100818.94
2023-03-02T19:06:23.433Z,100822.16
2023-03-02T19:08:51.455Z,100825.47
2023-03-02T19:11:19.967Z,100823.72
2023-03-02T19:13:48.054Z,100833.22
2023-03-02T19:16:18.378Z,100833.22
2023-03-02T19:18:47.226Z,100828.28
2023-03-02T19:21:15.749Z,100832.88
2023-03-02T19:23:45.662Z,100835.53
2023-03-02T19:26:15.582Z,100834.16
2023-03-02T19:28:43.697Z,100832.88
2023-03-02T19:31:13.897Z,100834.59
2023-03-02T19:33:42.739Z,100836.44
2023-03-02T19:36:12.077Z,100838.47
2023-03-02T19:38:44.657Z,100842.19
2023-03-02T19:41:16.584Z,100839.53
2023-03-02T19:43:46.151Z,100844.19
2023-03-02T19:46:16.605Z,100841.38
2023-03-02T19:48:45.018Z,100842.31
2023-03-02T19:51:14.929Z,100846.84
2023-03-02T19:53:44.424Z,100851.47
2023-03-02T19:56:15.828Z,100843.47
2023-03-02T19:58:48.113Z,100850.72
2023-03-02T20:01:25.245Z,100858.84
2023-03-02T20:03:55.208Z,100854.66
2023-03-02T20:06:30.762Z,100859.13
2023-03-02T20:09:01.597Z,100853.72
2023-03-02T20:11:31.555Z,100844.63
2023-03-02T20:14:02.829Z,100846.97
2023-03-02T20:16:33.402Z,100855.31
2023-03-02T20:19:03.537Z,100862.72
2023-03-02T20:21:33.360Z,100859.28
2023-03-02T20:24:01.647Z,100863.13
2023-03-02T20:26:30.139Z,100856.66
2023-03-02T20:28:59.920Z,100867.56
2023-03-02T20:31:31.723Z,100864.25
2023-03-02T20:34:05.884Z,100864.75
2023-03-02T20:36:37.599Z,100859.66
2023-03-02T20:39:28.195Z,100865.47
2023-03-02T20:41:58.283Z,100870.97
2023-03-02T20:44:28.505Z,100864.31
2023-03-02T20:47:01.827Z,100865.06
2023-03-02T20:49:32.251Z,100876.97
2023-03-02T20:52:03.263Z,100877.16
2023-03-02T20:54:36.293Z,100882.59
2023-03-02T20:57:07.001Z,100882.13
2023-03-02T20:59:39.744Z,100881.25
2023-03-02T21:02:08.876Z,100879.97
2023-03-02T21:04:38.027Z,100876.00
2023-03-02T21:07:06.836Z,100877.59
2023-03-02T21:09:36.369Z,100883.22
2023-03-02T21:12:08.573Z,100872.97
2023-03-02T21:14:38.144Z,100876.25
2023-03-02T21:17:07.635Z,100872.56
2023-03-02T21:19:35.885Z,100873.69
2023-03-02T21:22:04.553Z,100871.91
2023-03-02T21:24:32.653Z,100869.44
2023-03-02T21:27:01.586Z,100871.13
2023-03-02T21:29:29.862Z,100865.69
2023-03-02T21:31:58.431Z,100862.78
2023-03-02T21:34:26.566Z,100861.72
2023-03-02T21:36:54.941Z,100871.31
2023-03-02T21:39:23.832Z,100869.44
2023-03-02T21:41:53.596Z,100873.97
2023-03-02T21:44:21.986Z,100881.97
2023-03-02T21:46:51.150Z,100870.50
2023-03-02T21:49:22.318Z,100865.06
2023-03-02T21:51:50.827Z,100871.22
2023-03-02T21:54:18.886Z,100871.09
2023-03-02T21:56:47.205Z,100871.56
2023-03-02T21:59:15.312Z,100866.16
2023-03-02T22:01:44.190Z,100863.78
2023-03-02T22:04:12.337Z,100863.78
2023-03-02T22:06:40.643Z,100857.38
2023-03-02T22:09:08.731Z,100856.59
2023-03-02T22:11:38.420Z,100850.69
2023-03-02T22:14:15.262Z,100858.06
2023-03-02T22:16:47.544Z,100855.50
2023-03-02T22:19:25.944Z,100858.66
2023-03-02T22:22:00.390Z,100849.16
2023-03-02T22:24:30.599Z,100853.91
2023-03-02T22:27:04.776Z,100851.31
2023-03-02T22:29:37.629Z,100853.22
2023-03-02T22:32:27.384Z,100852.97
2023-03-02T22:34:58.962Z,100850.81
2023-03-02T22:37:29.600Z,100853.41
2023-03-02T22:43:14.915Z,100847.06
2023-03-02T22:45:43.110Z,100838.78
2023-03-02T22:48:20.573Z,100841.31
2023-03-02T22:50:50.201Z,100849.63
2023-03-02T22:53:42.731Z,100844.03
2023-03-02T22:56:30.723Z,100843.38
2023-03-02T22:59:26.198Z,100837.91
2023-03-02T23:02:14.257Z,100835.03
2023-03-02T23:04:42.891Z,100842.34
2023-03-02T23:07:22.362Z,100838.31
2023-03-02T23:09:50.542Z,100844.94
2023-03-02T23:12:27.591Z,100838.69
2023-03-02T23:14:58.250Z,100841.94
2023-03-02T23:17:37.474Z,100845.69
2023-03-02T23:20:09.492Z,100843.97
2023-03-02T23:22:39.245Z,100838.78
2023-03-02T23:25:08.973Z,100832.41
2023-03-02T23:27:37.027Z,100834.28
2023-03-02T23:30:06.380Z,100831.38
2023-03-02T23:32:34.364Z,100826.66
2023-03-02T23:35:02.798Z,100824.91
2023-03-02T23:37:30.750Z,100822.91
2023-03-02T23:39:58.971Z,100823.94
2023-03-02T23:42:26.851Z,100829.41
2023-03-02T23:44:55.836Z,100824.09
2023-03-02T23:47:23.744Z,100829.31
2023-03-02T23:49:51.963Z,100822.44
2023-03-02T23:52:19.835Z,100827.13
2023-03-02T23:54:48.359Z,100825.09
2023-03-02T23:57:16.378Z,100828.63
2023-03-02T23:59:44.766Z,100827.56
